createdAt,value
2024-01-26T06:49:22.852Z,0.68
2024-01-26T07:01:14.537Z,0.63
2024-01-26T09:11:53.788Z,0.40
2024-01-26T09:14:21.288Z,0.50
2024-01-26T09:16:52.874Z,0.75
2024-01-26T09:19:27.019Z,0.60
2024-01-26T09:22:07.878Z,0.75
2024-01-26T09:24:45.602Z,0.65
2024-01-26T09:27:27.501Z,1.08
2024-01-26T09:29:57.828Z,1.48
2024-01-26T09:32:32.833Z,1.60
2024-01-26T09:35:18.581Z,1.40
2024-01-26T09:37:49.698Z,1.27
2024-01-26T09:40:31.352Z,1.33
2024-01-26T09:43:17.196Z,1.65
2024-01-26T09:46:25.438Z,1.25
2024-01-26T09:52:11.650Z,1.15
2024-01-26T09:54:50.854Z,1.13
2024-01-26T09:57:24.632Z,1.00
2024-01-26T09:59:58.386Z,0.80
2024-01-26T10:02:32.386Z,0.98
2024-01-26T10:05:07.755Z,0.93
2024-01-26T10:07:42.816Z,0.98
2024-01-26T10:10:13.562Z,0.90
2024-01-26T10:12:46.591Z,0.90
2024-01-26T10:17:57.175Z,0.95
2024-01-26T10:20:31.379Z,0.80
2024-01-26T10:22:58.589Z,0.93
2024-01-26T10:25:37.486Z,1.10
2024-01-26T10:31:08.630Z,1.10
2024-01-26T10:33:48.081Z,0.90
2024-01-26T10:38:59.090Z,1.15
2024-01-26T10:41:27.128Z,1.20
2024-01-26T10:43:56.784Z,1.60
2024-01-26T10:51:44.027Z,1.23
2024-01-26T10:54:19.823Z,0.88
2024-01-26T10:56:53.210Z,0.90
2024-01-26T10:59:21.606Z,0.90
2024-01-26T11:07:48.488Z,1.00
2024-01-26T11:10:30.892Z,1.45
2024-01-26T11:13:11.748Z,1.17
2024-01-26T11:15:47.906Z,1.00
2024-01-26T11:18:30.240Z,1.05
2024-01-26T11:21:11.847Z,1.10
2024-01-26T11:23:42.927Z,0.90
2024-01-26T11:26:24.580Z,1.17
2024-01-26T11:29:01.183Z,1.05
2024-01-26T11:31:43.433Z,1.50
2024-01-26T11:34:33.164Z,1.50
2024-01-26T11:37:18.044Z,1.20
2024-01-26T11:39:54.753Z,1.40
2024-01-26T11:42:28.597Z,1.33
2024-01-26T11:45:17.999Z,1.90
2024-01-26T11:48:03.972Z,2.40
2024-01-26T11:50:31.344Z,1.70
2024-01-26T11:55:40.901Z,1.10
2024-01-26T12:00:45.324Z,1.10
2024-01-26T12:03:25.984Z,1.30
2024-01-26T12:05:59.602Z,1.23
2024-01-26T12:08:39.739Z,0.95
2024-01-26T12:11:42.211Z,1.17
2024-01-26T12:14:27.385Z,1.17
2024-01-26T12:17:03.476Z,1.00
2024-01-26T12:19:40.512Z,1.20
2024-01-26T12:22:16.016Z,1.05
2024-01-26T12:24:46.771Z,1.30
2024-01-26T12:29:52.762Z,1.10
2024-01-26T12:32:31.576Z,1.00
2024-01-26T14:54:57.528Z,0.75
2024-01-26T18:47:57.012Z,2.20
2024-01-26T21:02:33.834Z,6.25
2024-01-26T21:05:25.337Z,6.78
2024-01-26T21:08:09.924Z,6.57
2024-01-26T21:10:50.061Z,7.10
2024-01-26T21:13:33.773Z,5.97
2024-01-26T21:16:15.105Z,6.55
